createdAt,value
2018-02-08T00:02:07.488Z,67.50
2018-02-08T00:04:35.887Z,68.00
2018-02-08T00:07:04.263Z,67.80
2018-02-08T00:09:32.684Z,67.50
2018-02-08T00:12:00.300Z,67.50
2018-02-08T00:14:28.712Z,67.50
2018-02-08T00:16:56.326Z,67.40
2018-02-08T00:19:24.116Z,67.40
2018-02-08T00:21:52.498Z,67.70
2018-02-08T00:24:20.115Z,67.60
2018-02-08T00:26:47.814Z,67.60
2018-02-08T00:29:16.191Z,67.60
2018-02-08T00:31:44.591Z,67.40
2018-02-08T00:34:12.234Z,67.40
2018-02-08T00:36:40.630Z,67.30
2018-02-08T00:39:08.248Z,67.30
2018-02-08T00:41:35.882Z,67.20
2018-02-08T00:44:03.602Z,67.30
2018-02-08T00:46:32.091Z,67.30
2018-02-08T00:49:00.487Z,67.40
2018-02-08T00:51:28.128Z,67.30
2018-02-08T00:53:56.507Z,67.40
2018-02-08T00:56:24.906Z,67.40
2018-02-08T00:58:52.561Z,67.40
2018-02-08T01:01:20.966Z,67.30
2018-02-08T01:03:48.578Z,67.30
2018-02-08T01:06:16.244Z,67.60
2018-02-08T01:08:43.884Z,67.80
2018-02-08T01:11:12.286Z,68.20
2018-02-08T01:13:39.962Z,68.00
2018-02-08T01:16:08.451Z,67.90
2018-02-08T01:18:36.863Z,68.10
2018-02-08T01:21:04.491Z,68.00
2018-02-08T01:23:32.970Z,68.00
2018-02-08T01:26:01.347Z,68.00
2018-02-08T01:28:29.830Z,67.90
2018-02-08T01:30:58.211Z,67.90
2018-02-08T01:33:26.615Z,67.90
2018-02-08T01:35:54.231Z,67.80
2018-02-08T01:38:23.455Z,67.60
2018-02-08T01:40:51.835Z,67.60
2018-02-08T01:43:20.231Z,67.40
2018-02-08T01:45:47.878Z,67.40
2018-02-08T01:48:16.358Z,67.20
2018-02-08T01:50:44.848Z,67.10
2018-02-08T01:53:13.259Z,66.90
2018-02-08T01:55:40.867Z,66.90
2018-02-08T01:58:09.267Z,66.80
2018-02-08T02:00:37.643Z,66.70
2018-02-08T02:03:06.077Z,66.60
2018-02-08T02:05:33.793Z,66.50
2018-02-08T02:08:02.188Z,66.20
2018-02-08T02:10:29.930Z,66.20
2018-02-08T02:12:58.377Z,66.00
2018-02-08T02:15:26.015Z,65.90
2018-02-08T02:17:53.635Z,65.90
2018-02-08T02:20:22.127Z,66.00
2018-02-08T02:22:50.524Z,66.00
2018-02-08T02:25:18.272Z,65.80
2018-02-08T02:27:46.656Z,65.90
2018-02-08T02:30:14.300Z,65.80
2018-02-08T02:32:42.796Z,65.80
2018-02-08T02:35:11.198Z,65.60
2018-02-08T02:37:38.820Z,65.60
2018-02-08T02:40:06.603Z,65.40
2018-02-08T02:42:35.024Z,65.60
2018-02-08T02:45:02.651Z,65.50
2018-02-08T02:47:31.132Z,65.90
2018-02-08T02:49:59.606Z,66.10
2018-02-08T02:52:28.021Z,66.10
2018-02-08T02:54:55.641Z,66.00
2018-02-08T02:57:24.049Z,67.00
2018-02-08T02:59:51.663Z,66.20
2018-02-08T03:02:19.305Z,66.40
2018-02-08T03:04:47.023Z,66.40
2018-02-08T03:07:15.504Z,66.40
2018-02-08T03:09:44.616Z,66.40
2018-02-08T03:12:12.260Z,66.40
2018-02-08T03:14:40.783Z,66.70
2018-02-08T03:17:08.419Z,66.60
2018-02-08T03:19:36.043Z,66.70
2018-02-08T03:22:03.742Z,66.70
2018-02-08T03:24:31.459Z,66.70
2018-02-08T03:26:59.098Z,66.70
2018-02-08T03:29:26.715Z,66.60
2018-02-08T03:31:55.123Z,66.60
2018-02-08T03:34:22.743Z,66.60
2018-02-08T03:36:50.423Z,66.50
2018-02-08T03:39:18.812Z,66.30
2018-02-08T03:41:47.292Z,66.10
2018-02-08T03:44:15.776Z,66.10
2018-02-08T03:46:44.163Z,66.90
2018-02-08T03:49:11.819Z,66.00
2018-02-08T03:51:40.319Z,65.90
2018-02-08T03:54:07.968Z,65.90
2018-02-08T03:56:35.628Z,66.00
2018-02-08T03:59:04.035Z,66.00
2018-02-08T04:01:31.656Z,66.00
2018-02-08T04:04:00.056Z,65.80
2018-02-08T04:06:27.675Z,65.80
2018-02-08T04:08:55.321Z,65.50
2018-02-08T04:11:22.948Z,65.40
2018-02-08T04:13:50.600Z,65.50
2018-02-08T04:16:19.080Z,65.70
2018-02-08T04:18:47.503Z,65.70
2018-02-08T04:21:15.114Z,66.40
2018-02-08T04:23:43.511Z,65.90
2018-02-08T04:26:11.169Z,65.80
2018-02-08T04:28:39.575Z,65.80
2018-02-08T04:31:07.207Z,65.80
2018-02-08T04:33:35.596Z,65.90
2018-02-08T04:36:03.349Z,66.00
2018-02-08T04:38:43.816Z,66.00
2018-02-08T04:41:24.280Z,66.00
2018-02-08T04:44:04.612Z,66.00
2018-02-08T04:46:44.284Z,66.00
2018-02-08T04:49:12.721Z,66.10
2018-02-08T04:51:40.432Z,66.00
2018-02-08T04:54:08.912Z,66.90
2018-02-08T04:56:37.332Z,66.10
2018-02-08T04:59:04.964Z,66.10
2018-02-08T05:01:32.608Z,66.10
2018-02-08T05:04:01.099Z,66.00
2018-02-08T05:06:29.512Z,65.90
2018-02-08T05:08:57.302Z,65.80
2018-02-08T05:11:25.012Z,65.80
2018-02-08T05:13:53.396Z,65.80
2018-02-08T05:16:21.046Z,65.80
2018-02-08T05:18:49.432Z,66.00
2018-02-08T05:21:17.910Z,66.20
2018-02-08T05:23:46.291Z,66.30
2018-02-08T05:26:14.696Z,66.40
2018-02-08T05:28:42.317Z,66.40
2018-02-08T05:31:09.995Z,66.40
2018-02-08T05:33:38.479Z,66.20
2018-02-08T05:36:06.899Z,66.20
2018-02-08T05:38:34.506Z,66.20
2018-02-08T05:41:02.143Z,66.10
2018-02-08T05:43:29.768Z,66.00
2018-02-08T05:45:57.416Z,66.00
2018-02-08T05:48:25.041Z,66.00
2018-02-08T05:50:53.459Z,66.30
2018-02-08T05:53:21.079Z,66.30
2018-02-08T05:55:48.770Z,66.40
2018-02-08T05:58:17.180Z,66.40
2018-02-08T06:00:44.808Z,66.20
2018-02-08T06:03:13.223Z,66.20
2018-02-08T06:05:40.844Z,66.20
2018-02-08T06:08:08.587Z,66.20
2018-02-08T06:10:36.292Z,66.20
2018-02-08T06:13:04.731Z,66.30
2018-02-08T06:15:32.431Z,66.30
2018-02-08T06:18:00.836Z,66.40
2018-02-08T06:20:28.462Z,66.30
2018-02-08T06:22:56.112Z,66.40
2018-02-08T06:25:25.246Z,66.50
2018-02-08T06:27:52.900Z,66.50
2018-02-08T06:30:21.283Z,66.70
2018-02-08T06:32:49.762Z,66.70
2018-02-08T06:35:18.248Z,66.80
2018-02-08T06:37:46.685Z,66.80
2018-02-08T06:40:14.308Z,66.80
2018-02-08T06:42:42.115Z,66.80
2018-02-08T06:45:09.820Z,66.80
2018-02-08T06:47:38.303Z,66.50
2018-02-08T06:50:06.692Z,66.20
2018-02-08T06:52:34.357Z,66.20
2018-02-08T06:55:02.830Z,66.20
2018-02-08T06:57:31.303Z,66.30
2018-02-08T06:59:59.782Z,66.40
2018-02-08T07:02:28.276Z,66.50
2018-02-08T07:04:56.751Z,66.60
2018-02-08T07:07:25.136Z,66.70
2018-02-08T07:09:52.778Z,66.70
2018-02-08T07:12:20.395Z,66.90
2018-02-08T07:14:48.044Z,67.00
2018-02-08T07:17:15.690Z,67.10
2018-02-08T07:19:43.929Z,67.20
2018-02-08T07:22:11.605Z,67.30
2018-02-08T07:24:39.239Z,67.30
2018-02-08T07:27:06.854Z,67.50
2018-02-08T07:29:35.260Z,67.60
2018-02-08T07:32:02.964Z,67.50
2018-02-08T07:34:30.609Z,67.50
2018-02-08T07:36:58.320Z,67.50
2018-02-08T07:39:25.985Z,67.50
2018-02-08T07:41:53.639Z,67.50
2018-02-08T07:44:22.029Z,67.80
2018-02-08T07:46:49.683Z,67.70
2018-02-08T07:49:18.070Z,67.80
2018-02-08T07:51:46.479Z,67.80
2018-02-08T07:54:14.212Z,67.80
2018-02-08T07:56:42.696Z,68.10
2018-02-08T07:59:11.075Z,68.10
2018-02-08T08:01:39.551Z,68.10
2018-02-08T08:04:08.031Z,68.20
2018-02-08T08:06:36.439Z,68.30
2018-02-08T08:09:04.064Z,68.30
2018-02-08T08:11:31.746Z,68.40
2018-02-08T08:14:00.141Z,68.70
2018-02-08T08:16:27.872Z,68.60
2018-02-08T08:18:55.555Z,68.60
2018-02-08T08:21:23.966Z,68.50
2018-02-08T08:23:51.670Z,68.50
2018-02-08T08:26:19.316Z,68.60
2018-02-08T08:28:46.931Z,68.60
2018-02-08T08:31:14.572Z,68.70
2018-02-08T08:33:42.955Z,69.20
2018-02-08T08:36:11.369Z,69.50
2018-02-08T08:38:39.108Z,69.50
2018-02-08T08:41:07.493Z,69.80
2018-02-08T08:43:35.136Z,69.90
2018-02-08T08:46:03.514Z,70.10
2018-02-08T08:48:31.196Z,70.10
2018-02-08T08:50:58.815Z,70.30
2018-02-08T08:53:26.510Z,70.50
2018-02-08T08:55:55.003Z,71.40
2018-02-08T08:58:23.474Z,71.80
2018-02-08T09:00:51.863Z,72.10
2018-02-08T09:03:20.356Z,72.30
2018-02-08T09:05:47.980Z,72.30
2018-02-08T09:08:15.627Z,72.70
2018-02-08T09:10:43.326Z,73.00
2018-02-08T09:13:11.737Z,73.20
2018-02-08T09:15:39.354Z,73.10
2018-02-08T09:18:07.008Z,73.20
2018-02-08T09:20:34.627Z,73.00
2018-02-08T09:23:02.368Z,72.90
2018-02-08T09:25:29.999Z,72.90
2018-02-08T09:27:57.624Z,72.90
2018-02-08T09:30:25.356Z,72.90
2018-02-08T09:32:53.840Z,73.10
2018-02-08T09:35:21.500Z,73.10
2018-02-08T09:37:49.992Z,73.10
2018-02-08T09:40:17.634Z,73.10
2018-02-08T09:42:46.011Z,73.10
2018-02-08T09:45:14.410Z,73.50
2018-02-08T09:47:42.037Z,72.90
2018-02-08T09:50:09.670Z,72.80
2018-02-08T09:52:37.435Z,72.80
2018-02-08T09:55:05.083Z,72.80
2018-02-08T09:57:32.719Z,72.80
2018-02-08T10:00:01.132Z,72.50
2018-02-08T10:02:28.865Z,72.50
2018-02-08T10:04:56.507Z,72.30
2018-02-08T10:07:24.123Z,72.30
2018-02-08T10:09:51.809Z,72.30
2018-02-08T10:12:19.404Z,71.90
2018-02-08T10:14:47.807Z,71.70
2018-02-08T10:17:15.424Z,71.50
2018-02-08T10:19:43.178Z,71.40
2018-02-08T10:22:10.879Z,71.00
2018-02-08T10:24:39.264Z,70.50
2018-02-08T10:27:07.680Z,70.50
2018-02-08T10:29:35.451Z,70.40
2018-02-08T10:32:03.072Z,70.20
2018-02-08T10:34:31.557Z,70.10
2018-02-08T10:36:59.967Z,70.10
2018-02-08T10:39:27.700Z,70.10
2018-02-08T10:41:56.107Z,69.80
2018-02-08T10:44:23.728Z,69.70
2018-02-08T10:46:52.141Z,69.40
2018-02-08T10:49:19.795Z,69.40
2018-02-08T10:51:47.547Z,69.20
2018-02-08T10:54:16.027Z,68.40
2018-02-08T10:56:44.472Z,68.10
2018-02-08T10:59:12.180Z,68.10
2018-02-08T11:01:39.835Z,67.90
2018-02-08T11:04:08.324Z,67.70
2018-02-08T11:06:35.989Z,67.70
2018-02-08T11:09:03.603Z,67.70
2018-02-08T11:11:31.313Z,67.80
2018-02-08T11:13:58.964Z,67.90
2018-02-08T11:16:27.456Z,67.40
2018-02-08T11:18:55.940Z,67.40
2018-02-08T11:21:23.595Z,67.40
2018-02-08T11:23:52.005Z,67.20
2018-02-08T11:26:19.634Z,67.20
2018-02-08T11:28:48.063Z,66.40
2018-02-08T11:31:15.675Z,66.40
2018-02-08T11:33:44.172Z,66.20
2018-02-08T11:36:11.832Z,66.20
2018-02-08T11:38:40.308Z,66.00
2018-02-08T11:41:08.791Z,65.50
2018-02-08T11:43:37.194Z,65.40
2018-02-08T11:46:04.803Z,65.30
2018-02-08T11:48:32.416Z,64.70
2018-02-08T11:51:00.780Z,63.80
2018-02-08T11:53:29.264Z,63.60
2018-02-08T11:55:57.740Z,63.50
2018-02-08T11:58:26.228Z,63.40
2018-02-08T12:00:54.615Z,62.80
2018-02-08T12:03:23.004Z,62.30
2018-02-08T12:05:51.367Z,61.60
2018-02-08T12:08:20.568Z,60.60
2018-02-08T12:10:48.951Z,60.00
2018-02-08T12:13:16.604Z,60.00
2018-02-08T12:15:45.009Z,59.30
2018-02-08T12:18:13.363Z,59.40
2018-02-08T12:20:41.035Z,59.30
2018-02-08T12:23:09.511Z,59.40
2018-02-08T12:25:37.176Z,59.40
2018-02-08T12:28:04.772Z,59.80
2018-02-08T12:30:32.504Z,59.50
2018-02-08T12:33:00.096Z,59.00
2018-02-08T12:35:27.720Z,58.80
2018-02-08T12:37:55.315Z,58.50
2018-02-08T12:40:23.053Z,58.40
2018-02-08T12:42:50.647Z,58.20
2018-02-08T12:45:18.255Z,58.70
2018-02-08T12:47:45.935Z,57.90
2018-02-08T12:50:13.630Z,57.60
2018-02-08T12:52:42.077Z,56.70
2018-02-08T12:55:09.848Z,56.60
2018-02-08T12:57:37.435Z,56.40
2018-02-08T13:00:05.073Z,56.40
2018-02-08T13:02:32.739Z,56.30
2018-02-08T13:05:00.410Z,56.20
2018-02-08T13:07:28.792Z,55.70
2018-02-08T13:09:57.260Z,55.10
2018-02-08T13:12:24.879Z,55.10
2018-02-08T13:14:52.463Z,55.20
2018-02-08T13:17:20.071Z,54.10
2018-02-08T13:19:48.415Z,54.20
2018-02-08T13:22:16.023Z,54.10
2018-02-08T13:24:43.652Z,54.40
2018-02-08T13:27:11.268Z,53.70
2018-02-08T13:29:38.859Z,53.50
2018-02-08T13:32:06.487Z,54.10
2018-02-08T13:34:34.074Z,53.40
2018-02-08T13:37:01.693Z,53.00
2018-02-08T13:39:43.072Z,52.70
2018-02-08T13:42:20.592Z,52.50
2018-02-08T13:44:48.333Z,52.80
2018-02-08T13:47:21.559Z,53.80
2018-02-08T13:49:59.052Z,53.00
2018-02-08T13:52:26.664Z,53.20
2018-02-08T13:54:57.991Z,54.00
2018-02-08T14:00:34.293Z,52.60
2018-02-08T14:03:02.672Z,51.10
2018-02-08T14:05:30.280Z,51.10
2018-02-08T14:07:57.888Z,51.40
2018-02-08T14:10:25.479Z,51.80
2018-02-08T14:12:53.112Z,52.00
2018-02-08T14:15:20.704Z,51.90
2018-02-08T14:17:48.320Z,52.30
2018-02-08T14:20:15.909Z,51.40
2018-02-08T14:22:44.366Z,51.10
2018-02-08T14:25:12.030Z,51.00
2018-02-08T14:27:39.699Z,51.00
2018-02-08T14:30:07.354Z,51.00
2018-02-08T14:32:35.028Z,50.90
2018-02-08T14:35:02.686Z,50.80
2018-02-08T14:37:30.279Z,50.80
2018-02-08T14:39:58.727Z,50.50
2018-02-08T14:42:26.320Z,50.50
2018-02-08T14:44:54.732Z,50.70
2018-02-08T14:47:22.440Z,50.70
2018-02-08T14:49:50.059Z,50.70
2018-02-08T14:52:17.652Z,50.70
2018-02-08T14:54:45.261Z,50.70
2018-02-08T14:57:12.989Z,50.60
2018-02-08T14:59:40.652Z,50.70
2018-02-08T15:02:08.307Z,50.70
2018-02-08T15:04:36.713Z,50.60
2018-02-08T15:07:04.340Z,50.60
2018-02-08T15:09:32.743Z,50.50
2018-02-08T15:12:00.335Z,50.40
2018-02-08T15:14:28.055Z,50.50
2018-02-08T15:16:56.440Z,50.70
2018-02-08T15:19:24.064Z,50.60
2018-02-08T15:21:51.704Z,50.70
2018-02-08T15:24:19.437Z,50.80
2018-02-08T15:26:47.190Z,50.90
2018-02-08T15:29:15.675Z,51.10
2018-02-08T15:31:44.160Z,51.20
2018-02-08T15:34:12.551Z,51.30
2018-02-08T15:36:40.196Z,51.30
2018-02-08T15:39:08.647Z,51.60
2018-02-08T15:41:36.283Z,51.60
2018-02-08T15:44:03.895Z,51.70
2018-02-08T15:46:32.294Z,51.80
2018-02-08T15:48:59.904Z,51.80
2018-02-08T15:51:27.539Z,51.80
2018-02-08T15:53:55.235Z,51.90
2018-02-08T15:56:22.870Z,51.70
2018-02-08T15:58:50.495Z,51.70
2018-02-08T16:01:18.899Z,51.80
2018-02-08T16:03:46.515Z,51.70
2018-02-08T16:06:14.200Z,51.80
2018-02-08T16:08:42.603Z,51.90
2018-02-08T16:11:10.226Z,51.90
2018-02-08T16:13:38.716Z,52.20
2018-02-08T16:16:07.207Z,52.30
2018-02-08T16:18:35.603Z,52.50
2018-02-08T16:21:03.226Z,52.50
2018-02-08T16:23:30.888Z,52.70
2018-02-08T16:25:58.507Z,52.80
2018-02-08T16:28:26.178Z,53.00
2018-02-08T16:30:53.792Z,53.60
2018-02-08T16:33:22.196Z,53.70
2018-02-08T16:35:49.820Z,53.70
2018-02-08T16:38:17.502Z,54.50
2018-02-08T16:40:45.994Z,54.30
2018-02-08T16:43:13.651Z,54.30
2018-02-08T16:45:42.037Z,54.80
2018-02-08T16:48:10.510Z,55.00
2018-02-08T16:50:38.887Z,55.30
2018-02-08T16:53:07.283Z,55.60
2018-02-08T16:55:34.958Z,55.50
2018-02-08T16:58:03.322Z,56.20
2018-02-08T17:00:31.815Z,56.30
2018-02-08T17:02:59.452Z,56.30
2018-02-08T17:05:27.939Z,56.80
2018-02-08T17:07:56.359Z,57.00
2018-02-08T17:10:23.966Z,57.00
2018-02-08T17:12:52.226Z,57.10
2018-02-08T17:15:19.899Z,57.30
2018-02-08T17:17:47.593Z,57.30
2018-02-08T17:20:16.076Z,57.40
2018-02-08T17:22:44.555Z,57.40
2018-02-08T17:25:12.967Z,57.50
2018-02-08T17:27:40.595Z,57.40
2018-02-08T17:30:08.995Z,57.60
2018-02-08T17:32:36.643Z,57.60
2018-02-08T17:35:05.119Z,57.90
2018-02-08T17:37:33.500Z,57.90
2018-02-08T17:40:01.896Z,57.90
2018-02-08T17:42:29.515Z,57.90
2018-02-08T17:44:57.203Z,58.00
2018-02-08T17:47:25.587Z,58.20
2018-02-08T17:49:53.987Z,58.20
2018-02-08T17:52:21.632Z,58.20
2018-02-08T17:54:50.107Z,58.30
2018-02-08T17:57:18.590Z,58.40
2018-02-08T17:59:46.991Z,58.40
2018-02-08T18:02:14.636Z,58.40
2018-02-08T18:04:42.408Z,58.50
2018-02-08T18:07:10.068Z,58.60
2018-02-08T18:09:37.723Z,58.60
2018-02-08T18:12:06.126Z,58.90
2018-02-08T18:14:33.767Z,58.90
2018-02-08T18:17:02.163Z,59.00
2018-02-08T18:19:29.774Z,59.00
2018-02-08T18:21:57.408Z,59.00
2018-02-08T18:24:25.019Z,59.10
2018-02-08T18:26:53.418Z,59.80
2018-02-08T18:29:21.901Z,59.30
2018-02-08T18:31:50.317Z,59.50
2018-02-08T18:34:17.931Z,59.50
2018-02-08T18:36:46.335Z,59.60
2018-02-08T18:39:13.991Z,59.60
2018-02-08T18:41:41.632Z,59.70
2018-02-08T18:44:10.024Z,60.20
2018-02-08T18:46:38.508Z,59.80
2018-02-08T18:49:06.992Z,59.80
2018-02-08T18:51:35.400Z,59.90
2018-02-08T18:54:03.019Z,59.90
2018-02-08T18:56:31.514Z,60.10
2018-02-08T18:58:59.995Z,60.00
2018-02-08T19:01:28.475Z,60.20
2018-02-08T19:03:56.897Z,60.20
2018-02-08T19:06:24.531Z,60.20
2018-02-08T19:08:52.180Z,60.20
2018-02-08T19:11:20.658Z,60.30
2018-02-08T19:13:49.063Z,60.30
2018-02-08T19:16:16.711Z,60.20
2018-02-08T19:18:45.188Z,60.40
2018-02-08T19:21:13.671Z,60.30
2018-02-08T19:23:42.091Z,60.30
2018-02-08T19:26:09.718Z,60.30
2018-02-08T19:28:37.354Z,60.40
2018-02-08T19:31:04.975Z,60.50
2018-02-08T19:33:32.615Z,60.60
2018-02-08T19:36:00.235Z,60.70
2018-02-08T19:38:27.928Z,60.70
2018-02-08T19:40:56.327Z,61.00
2018-02-08T19:43:23.971Z,61.00
2018-02-08T19:45:52.365Z,61.20
2018-02-08T19:48:20.013Z,61.20
2018-02-08T19:50:48.496Z,61.20
2018-02-08T19:53:16.984Z,61.10
2018-02-08T19:55:44.603Z,61.20
2018-02-08T19:58:12.305Z,61.20
2018-02-08T20:00:40.783Z,61.30
2018-02-08T20:03:09.166Z,61.30
2018-02-08T20:05:37.577Z,61.20
2018-02-08T20:08:05.303Z,61.10
2018-02-08T20:10:33.707Z,61.40
2018-02-08T20:13:01.320Z,61.40
2018-02-08T20:15:31.820Z,61.60
2018-02-08T20:17:59.427Z,61.70
2018-02-08T20:20:28.306Z,61.90
2018-02-08T20:22:55.923Z,61.70
2018-02-08T20:25:29.258Z,61.80
2018-02-08T20:27:56.892Z,61.90
2018-02-08T20:30:24.531Z,62.00
2018-02-08T20:32:52.180Z,62.10
2018-02-08T20:35:20.631Z,62.40
2018-02-08T20:37:48.324Z,62.30
2018-02-08T20:40:22.788Z,62.70
2018-02-08T20:42:56.083Z,62.70
2018-02-08T20:45:23.726Z,62.90
2018-02-08T20:47:51.359Z,63.20
2018-02-08T20:50:19.783Z,63.60
2018-02-08T20:52:47.408Z,63.50
2018-02-08T20:55:15.828Z,63.60
2018-02-08T20:57:43.615Z,63.60
2018-02-08T21:00:11.275Z,63.70
2018-02-08T21:02:38.900Z,63.60
2018-02-08T21:05:06.539Z,63.60
2018-02-08T21:07:34.950Z,63.70
2018-02-08T21:10:02.589Z,63.70
2018-02-08T21:12:31.062Z,63.80
2018-02-08T21:14:59.443Z,63.80
2018-02-08T21:17:27.854Z,63.80
2018-02-08T21:19:55.480Z,63.70
2018-02-08T21:22:23.879Z,63.90
2018-02-08T21:24:51.526Z,63.90
2018-02-08T21:27:19.935Z,64.10
2018-02-08T21:29:47.577Z,64.00
2018-02-08T21:32:15.214Z,64.20
2018-02-08T21:34:42.958Z,64.20
2018-02-08T21:37:10.600Z,64.40
2018-02-08T21:39:38.220Z,64.50
2018-02-08T21:42:06.628Z,64.60
2018-02-08T21:44:34.267Z,64.50
2018-02-08T21:47:02.666Z,64.60
2018-02-08T21:49:30.290Z,64.50
2018-02-08T21:51:57.967Z,64.60
2018-02-08T21:54:26.456Z,64.50
2018-02-08T21:56:54.958Z,64.60
2018-02-08T21:59:22.704Z,64.60
2018-02-08T22:01:51.086Z,64.50
2018-02-08T22:04:19.558Z,64.60
2018-02-08T22:06:47.939Z,64.60
2018-02-08T22:09:16.418Z,64.50
2018-02-08T22:11:44.801Z,64.60
2018-02-08T22:14:13.203Z,64.60
2018-02-08T22:16:40.849Z,64.50
2018-02-08T22:19:09.259Z,64.40
2018-02-08T22:21:36.890Z,64.40
2018-02-08T22:24:05.366Z,64.40
2018-02-08T22:26:33.760Z,64.20
2018-02-08T22:29:01.408Z,64.20
2018-02-08T22:31:29.901Z,64.30
2018-02-08T22:33:57.572Z,64.30
2018-02-08T22:36:25.216Z,64.30
2018-02-08T22:38:53.599Z,64.20
2018-02-08T22:41:22.079Z,64.20
2018-02-08T22:43:50.458Z,64.30
2018-02-08T22:46:18.948Z,64.50
2018-02-08T22:48:47.426Z,64.60
2018-02-08T22:51:15.827Z,64.70
2018-02-08T22:53:43.439Z,64.70
2018-02-08T22:56:11.156Z,64.80
2018-02-08T22:58:38.791Z,64.80
2018-02-08T23:01:07.197Z,64.70
2018-02-08T23:03:34.815Z,64.60
2018-02-08T23:06:02.453Z,64.50
2018-02-08T23:08:30.164Z,64.60
2018-02-08T23:10:58.575Z,64.60
2018-02-08T23:13:26.257Z,64.60
2018-02-08T23:15:53.967Z,64.60
2018-02-08T23:18:22.342Z,64.60
2018-02-08T23:20:50.751Z,64.50
2018-02-08T23:23:18.391Z,64.40
2018-02-08T23:25:46.798Z,64.20
2018-02-08T23:28:14.435Z,64.20
2018-02-08T23:30:42.836Z,64.10
2018-02-08T23:33:10.479Z,64.10
2018-02-08T23:35:38.872Z,64.10
2018-02-08T23:38:07.303Z,64.10
2018-02-08T23:40:35.691Z,65.10
2018-02-08T23:43:03.333Z,64.30
2018-02-08T23:45:31.047Z,64.40
2018-02-08T23:47:59.528Z,64.30
2018-02-08T23:50:28.660Z,64.40
2018-02-08T23:52:56.387Z,64.40
2018-02-08T23:55:24.766Z,64.40
2018-02-08T23:57:53.171Z,64.50
